Time;durP1;ratioP1;P1;durP2;ratioP2;P2;SDS_P1;SDS_P2;PMS_P1;PMS_P2;Temp;Humidity;BMP_temperature;BMP_pressure;BME280_temperature;BME280_humidity;BME280_pressure;Samples;Min_cycle;Max_cycle;Signal;HPM_P1;HPM_P2
2024/01/30 00:00:41;;;;;;;19.53;9.07;;;6.60;99.90;;;;;;5094042;28;20202;-47
2024/01/30 00:03:10;;;;;;;16.73;9.57;;;6.60;99.90;;;;;;5075885;28;20206;-47
2024/01/30 00:05:35;;;;;;;18.27;10.27;;;6.60;99.90;;;;;;5094068;28;20177;-48
2024/01/30 00:08:01;;;;;;;12.67;8.03;;;6.50;99.90;;;;;;5095071;28;20638;-47
2024/01/30 00:10:27;;;;;;;16.97;9.97;;;6.50;99.90;;;;;;5093098;28;20179;-47
2024/01/30 00:12:52;;;;;;;16.20;10.10;;;6.40;99.90;;;;;;5094128;28;20258;-47
2024/01/30 00:15:18;;;;;;;14.33;9.00;;;6.40;99.90;;;;;;5095007;28;20179;-46
2024/01/30 00:17:45;;;;;;;13.87;8.93;;;6.30;99.90;;;;;;5095037;28;20732;-46
2024/01/30 00:20:11;;;;;;;16.73;9.30;;;6.30;99.90;;;;;;5093832;28;20622;-48
2024/01/30 00:22:36;;;;;;;15.30;8.80;;;6.30;99.90;;;;;;5093150;28;20210;-47
2024/01/30 00:25:02;;;;;;;13.93;8.87;;;6.30;99.90;;;;;;5094263;28;20181;-46
2024/01/30 00:27:28;;;;;;;16.23;8.73;;;6.20;99.90;;;;;;5092435;28;20229;-46
2024/01/30 00:29:54;;;;;;;15.70;9.40;;;6.10;99.90;;;;;;5093964;28;20182;-46
2024/01/30 00:32:23;;;;;;;12.90;9.10;;;6.10;99.90;;;;;;5093681;28;20264;-46
2024/01/30 00:34:49;;;;;;;16.30;9.47;;;6.10;99.90;;;;;;5093774;28;20189;-47
2024/01/30 00:37:14;;;;;;;15.93;9.77;;;6.10;99.90;;;;;;5093509;28;20314;-49
2024/01/30 00:39:40;;;;;;;13.80;8.77;;;6.10;99.90;;;;;;5093755;28;20191;-46
2024/01/30 00:42:06;;;;;;;13.20;8.70;;;6.10;99.90;;;;;;5093398;28;20193;-48
2024/01/30 00:44:34;;;;;;;14.27;9.70;;;6.10;99.90;;;;;;5093462;28;20175;-48
2024/01/30 00:47:03;;;;;;;14.17;8.70;;;6.00;99.90;;;;;;5094223;28;20191;-47
2024/01/30 00:49:28;;;;;;;13.43;8.70;;;6.00;99.90;;;;;;5092274;28;20186;-47
2024/01/30 00:51:54;;;;;;;13.47;8.87;;;6.00;99.90;;;;;;5092120;28;20186;-48
2024/01/30 00:54:19;;;;;;;15.33;8.97;;;5.90;99.90;;;;;;5094267;28;20213;-47
2024/01/30 00:56:45;;;;;;;17.30;9.07;;;5.90;99.90;;;;;;5097548;28;20248;-46
2024/01/30 00:59:11;;;;;;;19.57;9.27;;;6.00;99.90;;;;;;5097492;28;20202;-48
2024/01/30 01:01:37;;;;;;;15.90;9.17;;;5.90;99.90;;;;;;5096278;28;20655;-47
2024/01/30 01:04:07;;;;;;;10.23;8.63;;;5.90;99.90;;;;;;5096588;28;20221;-47
2024/01/30 01:06:32;;;;;;;19.47;9.67;;;5.90;99.90;;;;;;5097633;28;20198;-46
2024/01/30 01:08:58;;;;;;;14.47;9.43;;;5.80;99.90;;;;;;5097395;28;20178;-48
2024/01/30 01:11:23;;;;;;;14.27;9.03;;;5.90;99.90;;;;;;5096424;28;20274;-47
2024/01/30 01:13:49;;;;;;;16.20;9.30;;;5.80;99.90;;;;;;5097264;28;20170;-46
2024/01/30 01:16:20;;;;;;;15.40;9.70;;;5.80;99.90;;;;;;5097378;28;20596;-46
2024/01/30 01:18:45;;;;;;;13.97;9.53;;;5.80;99.90;;;;;;5097736;28;20194;-47
2024/01/30 01:21:11;;;;;;;15.93;9.23;;;5.80;99.90;;;;;;5097144;28;20262;-46
2024/01/30 01:23:37;;;;;;;14.03;9.17;;;5.70;99.90;;;;;;5097123;28;20177;-47
2024/01/30 01:26:03;;;;;;;12.10;8.33;;;5.70;99.90;;;;;;5096089;28;20252;-46
2024/01/30 01:28:34;;;;;;;16.47;8.30;;;5.70;99.90;;;;;;5096983;28;20187;-48
2024/01/30 01:31:05;;;;;;;20.97;9.30;;;5.70;99.90;;;;;;5096784;28;20177;-46
2024/01/30 01:33:37;;;;;;;15.93;8.90;;;5.70;99.90;;;;;;5097328;28;20499;-47
2024/01/30 01:36:03;;;;;;;15.67;9.23;;;5.60;99.90;;;;;;5096849;28;20218;-46
2024/01/30 01:38:29;;;;;;;20.50;9.63;;;5.70;99.90;;;;;;5097084;28;20285;-47
2024/01/30 01:40:55;;;;;;;16.70;9.63;;;5.70;99.90;;;;;;5096783;28;20179;-46
2024/01/30 01:43:23;;;;;;;16.13;9.43;;;5.70;99.90;;;;;;5096648;28;20181;-46
2024/01/30 01:45:49;;;;;;;18.20;9.40;;;5.70;99.90;;;;;;5096716;28;20222;-46
2024/01/30 01:48:15;;;;;;;14.47;9.40;;;5.70;99.90;;;;;;5096881;28;20217;-47
2024/01/30 01:50:41;;;;;;;14.73;9.83;;;5.60;99.90;;;;;;5096734;28;20183;-45
2024/01/30 01:53:08;;;;;;;13.47;9.50;;;5.70;99.90;;;;;;5096876;28;20171;-47
2024/01/30 01:55:37;;;;;;;19.30;10.80;;;5.70;99.90;;;;;;5096751;28;20190;-46
2024/01/30 01:58:03;;;;;;;21.20;9.40;;;5.70;99.90;;;;;;5096914;28;20206;-48
2024/01/30 02:00:29;;;;;;;12.77;10.03;;;5.70;99.90;;;;;;5096468;28;20205;-49
2024/01/30 02:02:54;;;;;;;15.13;9.70;;;5.70;99.90;;;;;;5095701;28;20262;-48
2024/01/30 02:05:21;;;;;;;16.10;9.13;;;5.80;99.90;;;;;;5096076;28;20602;-47
2024/01/30 02:07:47;;;;;;;16.60;9.73;;;5.80;99.90;;;;;;5095676;28;20182;-48
2024/01/30 02:10:18;;;;;;;16.50;9.73;;;5.80;99.90;;;;;;5096198;28;20642;-47
2024/01/30 02:12:44;;;;;;;17.37;9.83;;;5.80;99.90;;;;;;5096126;28;20179;-47
2024/01/30 02:15:13;;;;;;;14.37;9.63;;;5.90;99.90;;;;;;5096716;28;20253;-47
2024/01/30 02:17:39;;;;;;;12.63;8.13;;;5.90;99.90;;;;;;5096251;28;20245;-46
2024/01/30 02:20:08;;;;;;;12.53;6.70;;;6.00;99.90;;;;;;5095385;28;20175;-47
2024/01/30 02:22:36;;;;;;;17.37;7.50;;;6.10;99.90;;;;;;5096357;28;20167;-47
2024/01/30 02:25:02;;;;;;;11.33;7.17;;;6.20;99.90;;;;;;5096174;28;20329;-48
2024/01/30 02:27:28;;;;;;;10.53;7.07;;;6.30;99.90;;;;;;5096094;28;20210;-48
2024/01/30 02:29:53;;;;;;;12.33;8.03;;;6.40;99.90;;;;;;5095827;28;20297;-47
2024/01/30 02:32:19;;;;;;;13.77;7.87;;;6.50;99.90;;;;;;5096095;28;20184;-48
2024/01/30 02:34:44;;;;;;;14.10;7.67;;;6.50;99.90;;;;;;5096468;28;20685;-48
2024/01/30 02:37:13;;;;;;;13.40;7.60;;;6.50;99.90;;;;;;5095478;28;20207;-46
2024/01/30 02:39:39;;;;;;;12.07;7.63;;;6.60;99.90;;;;;;5094363;28;20259;-48
2024/01/30 02:42:05;;;;;;;16.87;7.93;;;6.60;99.90;;;;;;5095597;28;20224;-47
2024/01/30 02:44:30;;;;;;;12.13;7.17;;;6.60;99.90;;;;;;5095905;28;20216;-46
2024/01/30 02:46:56;;;;;;;13.53;7.80;;;6.60;99.90;;;;;;5095405;28;20719;-46
2024/01/30 02:49:22;;;;;;;14.33;7.97;;;6.70;99.90;;;;;;5095474;28;20197;-47
2024/01/30 02:51:51;;;;;;;14.27;7.73;;;6.70;99.90;;;;;;5095651;28;20182;-47
2024/01/30 02:54:20;;;;;;;14.83;8.00;;;6.70;99.90;;;;;;5095410;28;20684;-48
2024/01/30 02:56:46;;;;;;;14.10;6.67;;;6.70;99.90;;;;;;5094261;28;20211;-47
2024/01/30 02:59:11;;;;;;;13.47;7.93;;;6.70;99.90;;;;;;5094059;28;20277;-49
2024/01/30 03:01:47;;;;;;;11.23;8.33;;;6.80;99.90;;;;;;5095272;28;20246;-47
2024/01/30 03:04:13;;;;;;;14.57;8.00;;;6.80;99.90;;;;;;5095492;28;20190;-48
2024/01/30 03:06:44;;;;;;;15.00;8.30;;;6.80;99.90;;;;;;5095362;28;20611;-49
2024/01/30 03:09:09;;;;;;;15.23;8.47;;;6.80;99.90;;;;;;5095121;28;20171;-48
2024/01/30 03:11:35;;;;;;;13.73;7.67;;;6.80;99.90;;;;;;5095000;28;20707;-48
2024/01/30 03:14:00;;;;;;;11.43;8.87;;;6.80;99.90;;;;;;5094944;28;20185;-47
2024/01/30 03:16:26;;;;;;;12.77;8.93;;;6.70;99.90;;;;;;5095134;28;20205;-47
2024/01/30 03:18:52;;;;;;;14.27;8.93;;;6.70;99.90;;;;;;5094727;28;20277;-46
2024/01/30 03:21:17;;;;;;;15.07;8.27;;;6.60;99.90;;;;;;5094830;28;20643;-46
2024/01/30 03:23:43;;;;;;;13.73;8.07;;;6.60;99.90;;;;;;5095063;28;20171;-47
2024/01/30 03:26:09;;;;;;;11.57;7.57;;;6.50;99.90;;;;;;5094922;28;20198;-46
2024/01/30 03:28:34;;;;;;;16.93;7.67;;;6.50;99.90;;;;;;5094958;28;20599;-47
2024/01/30 03:31:00;;;;;;;13.13;8.33;;;6.50;99.90;;;;;;5094689;28;20242;-47
2024/01/30 03:33:29;;;;;;;14.47;8.40;;;6.50;99.90;;;;;;5094927;28;20544;-46
2024/01/30 03:35:54;;;;;;;13.20;8.87;;;6.50;99.90;;;;;;5094531;28;20217;-46
2024/01/30 03:38:20;;;;;;;14.13;9.20;;;6.40;99.90;;;;;;5093247;28;20559;-47
2024/01/30 03:40:45;;;;;;;14.57;9.27;;;6.40;99.90;;;;;;5094803;28;20174;-47
2024/01/30 03:43:11;;;;;;;14.90;8.80;;;6.30;99.90;;;;;;5095274;28;20639;-46
2024/01/30 03:45:36;;;;;;;15.00;9.07;;;6.20;99.90;;;;;;5096407;28;20192;-47
2024/01/30 03:48:02;;;;;;;12.93;9.07;;;6.20;99.90;;;;;;5095741;28;20190;-47
2024/01/30 03:50:28;;;;;;;15.57;8.50;;;6.20;99.90;;;;;;5094232;28;20187;-46
2024/01/30 03:52:53;;;;;;;11.37;7.67;;;6.10;99.90;;;;;;5092876;28;20175;-48
2024/01/30 03:55:19;;;;;;;14.23;8.57;;;6.10;99.90;;;;;;5095194;28;20179;-45
2024/01/30 03:57:44;;;;;;;14.47;8.23;;;6.00;99.90;;;;;;5094345;28;20605;-47
2024/01/30 04:00:11;;;;;;;16.23;9.00;;;6.00;99.90;;;;;;5094397;28;20177;-46
2024/01/30 04:02:36;;;;;;;17.20;8.17;;;6.00;99.90;;;;;;5094407;28;20173;-47
2024/01/30 04:05:04;;;;;;;12.37;8.20;;;6.00;99.90;;;;;;5094306;28;20228;-48
2024/01/30 04:07:32;;;;;;;12.90;8.30;;;5.90;99.90;;;;;;5092763;28;20214;-46
2024/01/30 04:10:01;;;;;;;12.30;7.57;;;5.90;99.90;;;;;;5094308;28;20163;-47
2024/01/30 04:12:28;;;;;;;14.53;8.17;;;5.80;99.90;;;;;;5093876;28;20642;-46
2024/01/30 04:14:55;;;;;;;11.50;7.77;;;5.80;99.90;;;;;;5094068;28;20179;-47
2024/01/30 04:17:23;;;;;;;11.60;8.47;;;5.80;99.90;;;;;;5093948;28;20556;-48
2024/01/30 04:19:49;;;;;;;16.47;8.80;;;5.80;99.90;;;;;;5094495;28;20193;-46
2024/01/30 04:22:14;;;;;;;13.50;8.23;;;5.80;99.90;;;;;;5093787;28;20175;-47
2024/01/30 04:24:40;;;;;;;16.00;8.33;;;5.80;99.90;;;;;;5093728;28;20186;-46
2024/01/30 04:27:06;;;;;;;13.70;8.20;;;5.80;99.90;;;;;;5093510;28;20202;-47
2024/01/30 04:29:32;;;;;;;17.07;7.90;;;5.90;99.90;;;;;;5093297;28;20178;-48
2024/01/30 04:32:01;;;;;;;9.87;6.90;;;5.90;99.90;;;;;;5093964;28;20189;-46
2024/01/30 04:34:26;;;;;;;11.07;7.03;;;6.00;99.90;;;;;;5093632;28;20182;-48
2024/01/30 04:36:52;;;;;;;12.67;7.17;;;6.10;99.90;;;;;;5093460;28;20588;-47
2024/01/30 04:39:17;;;;;;;13.90;7.80;;;6.10;99.90;;;;;;5092194;28;20768;-48
2024/01/30 04:41:43;;;;;;;15.83;7.13;;;6.20;99.90;;;;;;5092380;28;20181;-48
2024/01/30 04:44:08;;;;;;;14.80;7.63;;;6.20;99.90;;;;;;5093522;28;20212;-47
2024/01/30 04:46:34;;;;;;;15.70;7.87;;;6.20;99.90;;;;;;5092815;28;20213;-47
2024/01/30 04:49:03;;;;;;;13.03;7.93;;;6.30;99.90;;;;;;5092248;28;20190;-48
2024/01/30 04:51:29;;;;;;;14.70;7.10;;;6.20;99.90;;;;;;5093590;28;20249;-47
2024/01/30 04:53:55;;;;;;;15.33;7.50;;;6.20;99.90;;;;;;5093550;28;20236;-49
2024/01/30 04:56:21;;;;;;;12.37;7.00;;;6.20;99.90;;;;;;5093655;28;20201;-45
2024/01/30 04:58:46;;;;;;;12.67;7.80;;;6.20;99.90;;;;;;5092018;28;20582;-48
2024/01/30 05:01:18;;;;;;;11.47;7.93;;;6.20;99.90;;;;;;5093347;28;20613;-48
2024/01/30 05:03:44;;;;;;;10.77;7.23;;;6.20;99.90;;;;;;5093330;28;20175;-47
2024/01/30 05:06:10;;;;;;;13.40;7.90;;;6.20;99.90;;;;;;5093201;28;20281;-47
2024/01/30 05:11:58;;;;;;;10.87;7.37;;;6.10;99.90;;;;;;5093226;28;20200;-46
2024/01/30 05:14:23;;;;;;;11.90;8.07;;;6.00;99.90;;;;;;5093407;28;20186;-47
2024/01/30 05:16:49;;;;;;;11.30;7.50;;;6.00;99.90;;;;;;5093351;28;20222;-47
2024/01/30 05:19:15;;;;;;;12.77;8.27;;;5.90;99.90;;;;;;5093009;28;20231;-49
2024/01/30 05:21:41;;;;;;;13.17;7.90;;;5.90;99.90;;;;;;5093388;28;20183;-48
2024/01/30 05:24:10;;;;;;;12.07;8.17;;;5.90;99.90;;;;;;5093105;28;20176;-47
2024/01/30 05:26:36;;;;;;;13.73;8.07;;;5.80;99.90;;;;;;5093163;28;20663;-48
2024/01/30 05:29:02;;;;;;;14.00;6.67;;;5.80;99.90;;;;;;5092145;28;20191;-47
2024/01/30 05:31:28;;;;;;;10.40;7.80;;;5.80;99.90;;;;;;5093071;28;20182;-46
2024/01/30 05:33:54;;;;;;;12.33;7.13;;;5.90;99.90;;;;;;5091853;28;20179;-46
2024/01/30 05:36:20;;;;;;;12.97;7.93;;;5.90;99.90;;;;;;5092768;28;20733;-46
2024/01/30 05:38:46;;;;;;;18.83;9.40;;;6.00;99.90;;;;;;5093164;28;20208;-48
2024/01/30 05:41:11;;;;;;;9.90;7.77;;;6.00;99.90;;;;;;5095719;28;20258;-47
2024/01/30 05:43:37;;;;;;;12.77;7.93;;;6.00;99.90;;;;;;5095760;28;20179;-46
2024/01/30 05:46:04;;;;;;;12.10;8.10;;;5.90;99.90;;;;;;5096878;28;20276;-46
2024/01/30 05:48:30;;;;;;;19.80;8.30;;;5.90;99.90;;;;;;5096633;28;20639;-46
2024/01/30 05:51:03;;;;;;;12.97;8.10;;;5.90;99.90;;;;;;5096643;28;20170;-48
2024/01/30 05:53:29;;;;;;;15.83;8.60;;;5.80;99.90;;;;;;5096602;28;20631;-47
2024/01/30 05:55:55;;;;;;;13.67;8.03;;;5.80;99.90;;;;;;5096471;28;20202;-46
2024/01/30 05:58:21;;;;;;;10.90;7.60;;;5.80;99.90;;;;;;5096567;28;20202;-47
2024/01/30 06:00:47;;;;;;;17.37;8.30;;;5.80;99.90;;;;;;5096509;28;20619;-47
2024/01/30 06:03:12;;;;;;;13.93;7.90;;;5.90;99.90;;;;;;5096440;28;20185;-47
2024/01/30 06:05:40;;;;;;;13.63;7.40;;;5.90;99.90;;;;;;5097105;28;20190;-48
2024/01/30 06:08:12;;;;;;;12.87;7.37;;;5.90;99.90;;;;;;5096224;28;20219;-46
2024/01/30 06:10:38;;;;;;;12.17;6.57;;;6.00;99.90;;;;;;5096230;28;20292;-49
2024/01/30 06:13:04;;;;;;;12.67;7.03;;;6.10;99.90;;;;;;5096239;28;20537;-47
2024/01/30 06:15:29;;;;;;;9.90;6.07;;;6.20;99.90;;;;;;5096896;28;20175;-46
2024/01/30 06:17:57;;;;;;;12.77;6.87;;;6.40;99.90;;;;;;5096311;28;20194;-48
2024/01/30 06:20:22;;;;;;;11.53;6.67;;;6.50;99.90;;;;;;5096385;28;20645;-47
2024/01/30 06:22:48;;;;;;;10.33;7.20;;;6.50;99.90;;;;;;5096000;28;20167;-47
2024/01/30 06:25:16;;;;;;;11.63;7.77;;;6.60;99.90;;;;;;5096206;28;20186;-46
2024/01/30 06:27:42;;;;;;;18.00;8.57;;;6.60;99.90;;;;;;5095025;28;20222;-47
2024/01/30 06:30:08;;;;;;;18.57;8.63;;;6.60;99.90;;;;;;5096262;28;20190;-47
2024/01/30 06:32:35;;;;;;;12.47;8.67;;;6.50;99.90;;;;;;5096331;28;20179;-46
2024/01/30 06:35:01;;;;;;;19.10;8.10;;;6.40;99.90;;;;;;5095978;28;20604;-48
2024/01/30 06:37:27;;;;;;;12.80;7.87;;;6.30;99.90;;;;;;5095478;28;20217;-48
2024/01/30 06:39:53;;;;;;;12.47;8.43;;;6.30;99.90;;;;;;5094796;28;20684;-48
2024/01/30 06:42:19;;;;;;;17.30;8.37;;;6.20;99.90;;;;;;5095681;28;20273;-48
2024/01/30 06:44:44;;;;;;;13.37;8.60;;;6.10;99.90;;;;;;5095821;28;20171;-48
2024/01/30 06:47:10;;;;;;;16.03;8.43;;;6.10;99.90;;;;;;5095380;28;20251;-47
2024/01/30 06:49:41;;;;;;;12.87;8.07;;;6.10;99.90;;;;;;5095376;28;20273;-47
2024/01/30 06:52:08;;;;;;;15.13;8.50;;;6.00;99.90;;;;;;5093619;28;20186;-46
2024/01/30 06:54:34;;;;;;;15.87;8.30;;;6.00;99.90;;;;;;5095685;28;20534;-47
2024/01/30 06:57:00;;;;;;;14.93;8.90;;;6.00;99.90;;;;;;5094619;28;20217;-47
2024/01/30 06:59:25;;;;;;;14.70;8.57;;;6.00;99.90;;;;;;5095469;28;20206;-47
2024/01/30 07:01:54;;;;;;;12.90;8.00;;;5.90;99.90;;;;;;5094558;28;20715;-46
2024/01/30 07:04:23;;;;;;;11.90;8.27;;;5.90;99.90;;;;;;5095087;28;20182;-47
2024/01/30 07:06:48;;;;;;;10.47;7.63;;;5.90;99.90;;;;;;5095039;28;20202;-49
2024/01/30 07:09:14;;;;;;;12.20;7.60;;;5.90;99.90;;;;;;5094001;28;20187;-47
2024/01/30 07:11:39;;;;;;;19.50;8.40;;;6.00;99.90;;;;;;5095391;28;20186;-47
2024/01/30 07:14:05;;;;;;;11.00;7.83;;;6.00;99.90;;;;;;5094943;28;20198;-47
2024/01/30 07:16:32;;;;;;;11.60;7.70;;;6.00;99.90;;;;;;5095120;28;20199;-47
2024/01/30 07:18:58;;;;;;;15.17;8.17;;;6.10;99.90;;;;;;5095160;28;20214;-50
2024/01/30 07:21:28;;;;;;;11.60;8.17;;;6.10;99.90;;;;;;5076671;28;20204;-48
2024/01/30 07:23:55;;;;;;;17.73;8.87;;;6.20;99.90;;;;;;5095025;28;20178;-47
2024/01/30 07:26:21;;;;;;;15.00;8.93;;;6.20;99.90;;;;;;5094762;28;20259;-47
2024/01/30 07:28:46;;;;;;;16.43;9.37;;;6.10;99.90;;;;;;5095129;28;20206;-48
2024/01/30 07:31:15;;;;;;;18.40;9.87;;;6.20;99.90;;;;;;5095052;28;20179;-42
2024/01/30 07:33:41;;;;;;;14.97;9.23;;;6.20;99.90;;;;;;5094911;28;20186;-41
2024/01/30 07:36:06;;;;;;;18.00;9.33;;;6.20;99.90;;;;;;5093359;28;20222;-41
2024/01/30 07:38:32;;;;;;;20.70;10.03;;;6.10;99.90;;;;;;5094446;28;20341;-43
2024/01/30 07:40:58;;;;;;;17.77;10.00;;;6.10;99.90;;;;;;5094575;28;20179;-39
2024/01/30 07:43:26;;;;;;;17.93;10.43;;;6.10;99.90;;;;;;5094706;28;20183;-41
2024/01/30 07:45:53;;;;;;;17.30;9.87;;;6.10;99.90;;;;;;5094108;28;20205;-42
2024/01/30 07:48:21;;;;;;;16.43;9.47;;;6.20;99.90;;;;;;5094424;28;20636;-42
2024/01/30 07:50:47;;;;;;;16.10;9.93;;;6.20;99.90;;;;;;5094466;28;20181;-41
2024/01/30 07:53:12;;;;;;;16.33;9.23;;;6.20;99.90;;;;;;5094363;28;20186;-40
2024/01/30 07:55:38;;;;;;;21.77;9.47;;;6.20;99.90;;;;;;5094177;28;20175;-41
2024/01/30 07:58:04;;;;;;;17.60;9.87;;;6.20;99.90;;;;;;5094109;28;20203;-42
2024/01/30 08:00:30;;;;;;;18.20;9.93;;;6.30;99.90;;;;;;5092959;28;20209;-43
2024/01/30 08:02:56;;;;;;;14.97;9.43;;;6.30;99.90;;;;;;5094697;28;20563;-41
2024/01/30 08:05:26;;;;;;;22.13;10.17;;;6.40;99.90;;;;;;5093355;28;20543;-42
2024/01/30 08:07:52;;;;;;;16.90;9.03;;;6.40;99.90;;;;;;5094184;28;20212;-42
2024/01/30 08:10:20;;;;;;;14.17;8.77;;;6.40;99.90;;;;;;5094251;28;20270;-41
2024/01/30 08:12:48;;;;;;;18.80;9.80;;;6.50;99.90;;;;;;5094012;28;20646;-47
2024/01/30 08:15:20;;;;;;;25.10;10.27;;;6.50;99.90;;;;;;5093855;28;20187;-46
2024/01/30 08:17:46;;;;;;;20.30;10.03;;;6.50;99.90;;;;;;5094031;28;20221;-48
2024/01/30 08:20:13;;;;;;;18.33;9.67;;;6.60;99.90;;;;;;5094050;28;20175;-46
2024/01/30 08:22:40;;;;;;;20.53;9.97;;;6.60;99.90;;;;;;5094069;28;20217;-47
2024/01/30 08:25:06;;;;;;;21.60;11.40;;;6.60;99.90;;;;;;5093697;28;20677;-43
2024/01/30 08:27:32;;;;;;;22.87;10.13;;;6.60;99.90;;;;;;5092423;28;20205;-44
2024/01/30 08:29:57;;;;;;;19.70;10.70;;;6.70;99.90;;;;;;5093619;28;20174;-42
2024/01/30 08:32:23;;;;;;;20.40;10.37;;;6.70;99.90;;;;;;5093874;28;20186;-41
2024/01/30 08:34:49;;;;;;;17.70;9.80;;;6.70;99.90;;;;;;5093882;28;20186;-41
2024/01/30 08:37:16;;;;;;;21.93;10.50;;;6.70;99.90;;;;;;5093414;28;20252;-40
2024/01/30 08:39:43;;;;;;;18.07;10.50;;;6.70;99.90;;;;;;5093713;28;20214;-41
2024/01/30 08:42:12;;;;;;;18.67;11.23;;;6.70;99.90;;;;;;5092248;28;20198;-40
2024/01/30 08:44:38;;;;;;;16.83;10.37;;;6.70;99.90;;;;;;5093863;28;20175;-44
2024/01/30 08:47:04;;;;;;;14.20;9.80;;;6.70;99.90;;;;;;5093848;28;20209;-43
2024/01/30 08:49:30;;;;;;;23.27;10.70;;;6.80;99.90;;;;;;5092539;28;20191;-42
2024/01/30 08:51:56;;;;;;;15.90;10.87;;;6.80;99.90;;;;;;5093553;28;20261;-47
2024/01/30 08:54:22;;;;;;;20.77;11.13;;;6.80;99.90;;;;;;5093652;28;20195;-46
2024/01/30 08:56:48;;;;;;;20.80;10.67;;;6.90;99.90;;;;;;5093269;28;20297;-48
2024/01/30 08:59:14;;;;;;;22.07;10.33;;;6.90;99.90;;;;;;5093276;28;20285;-47
2024/01/30 09:01:40;;;;;;;14.30;10.10;;;6.90;99.90;;;;;;5093265;28;20182;-41
2024/01/30 09:04:06;;;;;;;17.30;10.27;;;6.90;99.90;;;;;;5093528;28;20593;-42
2024/01/30 09:06:31;;;;;;;18.13;9.70;;;7.00;99.90;;;;;;5093200;28;20278;-43
2024/01/30 09:09:00;;;;;;;20.17;10.47;;;7.00;99.90;;;;;;5093583;28;20183;-43
2024/01/30 09:11:29;;;;;;;24.97;10.37;;;7.00;99.90;;;;;;5093544;28;20567;-42
2024/01/30 09:13:54;;;;;;;22.03;10.83;;;7.10;99.90;;;;;;5092340;28;20190;-43
2024/01/30 09:16:20;;;;;;;29.10;11.40;;;7.10;99.90;;;;;;5095895;28;20268;-41
2024/01/30 09:18:45;;;;;;;18.43;11.40;;;7.10;99.90;;;;;;5097435;28;20569;-43
2024/01/30 09:21:11;;;;;;;21.93;11.47;;;7.20;99.90;;;;;;5097174;28;20206;-43
2024/01/30 09:23:40;;;;;;;18.53;11.13;;;7.20;99.90;;;;;;5096234;28;20187;-43
2024/01/30 09:26:05;;;;;;;19.47;10.60;;;7.20;99.90;;;;;;5097016;28;20194;-43
2024/01/30 09:28:31;;;;;;;18.40;10.70;;;7.30;99.90;;;;;;5097061;28;20178;-43
2024/01/30 09:30:56;;;;;;;19.00;11.37;;;7.30;99.90;;;;;;5097319;28;20179;-41
2024/01/30 09:33:22;;;;;;;21.47;11.80;;;7.40;99.90;;;;;;5097067;28;20251;-42
2024/01/30 09:35:47;;;;;;;20.90;11.27;;;7.50;99.90;;;;;;5097191;28;20332;-42
2024/01/30 09:38:16;;;;;;;26.13;11.03;;;7.60;99.90;;;;;;5097150;28;20207;-42
2024/01/30 09:40:42;;;;;;;21.10;10.20;;;7.70;99.90;;;;;;5097406;28;20175;-43
2024/01/30 09:43:09;;;;;;;17.30;10.27;;;7.90;99.90;;;;;;5096974;28;20181;-41
2024/01/30 09:45:35;;;;;;;17.23;10.70;;;8.00;99.90;;;;;;5096563;28;20194;-42
2024/01/30 09:48:01;;;;;;;20.27;8.73;;;8.30;99.90;;;;;;5096786;28;20171;-43
2024/01/30 09:50:27;;;;;;;14.73;9.87;;;8.50;99.90;;;;;;5096945;28;20187;-43
2024/01/30 09:52:55;;;;;;;20.20;10.60;;;8.70;99.90;;;;;;5097008;28;20206;-41
2024/01/30 09:55:22;;;;;;;19.10;10.67;;;8.90;99.90;;;;;;5096458;28;20647;-43
2024/01/30 09:57:47;;;;;;;551.97;63.50;;;9.10;99.90;;;;;;5095245;28;20221;-41
2024/01/30 10:00:13;;;;;;;19.77;10.77;;;9.30;99.90;;;;;;5096452;28;20188;-42
2024/01/30 10:02:40;;;;;;;24.23;10.87;;;9.40;99.90;;;;;;5093196;28;20183;-41
2024/01/30 10:05:07;;;;;;;18.43;10.80;;;9.50;99.90;;;;;;5094534;28;20183;-41
2024/01/30 10:07:34;;;;;;;27.03;10.07;;;9.60;99.90;;;;;;5096246;28;20253;-43
2024/01/30 10:09:59;;;;;;;21.80;10.70;;;9.60;99.90;;;;;;5095409;28;20184;-43
2024/01/30 10:12:29;;;;;;;17.30;9.20;;;9.70;99.90;;;;;;5096528;28;20185;-41
2024/01/30 10:14:56;;;;;;;18.57;10.10;;;9.70;99.90;;;;;;5096442;28;20187;-44
2024/01/30 10:17:25;;;;;;;263.40;32.97;;;9.80;99.90;;;;;;5096005;28;20272;-39
2024/01/30 10:20:05;;;;;;;28.17;10.67;;;9.80;99.90;;;;;;5096091;28;20222;-41
2024/01/30 10:22:30;;;;;;;17.37;9.20;;;9.90;99.90;;;;;;5096342;28;20175;-42
2024/01/30 10:24:56;;;;;;;21.53;8.70;;;10.00;99.90;;;;;;5095977;28;20184;-40
2024/01/30 10:27:29;;;;;;;17.27;8.40;;;10.10;99.90;;;;;;5095048;28;20614;-41
2024/01/30 10:29:55;;;;;;;14.13;8.07;;;10.20;99.90;;;;;;5094688;28;20196;-42
2024/01/30 10:32:23;;;;;;;16.23;7.70;;;10.30;99.90;;;;;;5096108;28;20174;-42
2024/01/30 10:34:52;;;;;;;16.97;7.60;;;10.40;99.90;;;;;;5095800;28;20175;-43
2024/01/30 10:37:21;;;;;;;18.47;7.90;;;10.50;99.90;;;;;;5095612;28;20287;-43
2024/01/30 10:43:11;;;;;;;13.17;6.30;;;10.70;99.90;;;;;;5095683;28;20554;-41
2024/01/30 10:45:40;;;;;;;17.70;6.63;;;10.70;99.90;;;;;;5095629;28;20233;-42
2024/01/30 10:48:09;;;;;;;16.50;6.87;;;10.80;99.90;;;;;;5094959;28;20178;-42
2024/01/30 10:50:35;;;;;;;16.00;7.03;;;10.90;99.90;;;;;;5095728;28;20646;-43
2024/01/30 10:53:02;;;;;;;17.03;6.60;;;11.00;99.90;;;;;;5095495;28;20174;-42
2024/01/30 10:55:38;;;;;;;16.20;6.80;;;11.00;99.90;;;;;;5095614;28;20179;-44
2024/01/30 10:58:04;;;;;;;17.87;7.50;;;11.10;99.90;;;;;;5095271;28;20197;-43
2024/01/30 11:00:33;;;;;;;17.00;6.40;;;11.10;99.90;;;;;;5095447;28;20622;-44
2024/01/30 11:02:58;;;;;;;13.10;6.97;;;11.20;99.90;;;;;;5095537;28;20175;-43
2024/01/30 11:05:28;;;;;;;20.23;7.27;;;11.20;99.90;;;;;;5095073;28;20163;-43
2024/01/30 11:07:57;;;;;;;16.77;5.77;;;11.20;99.90;;;;;;5095456;28;20157;-42
2024/01/30 11:10:25;;;;;;;9.97;5.90;;;11.30;99.90;;;;;;5093860;28;20679;-44
2024/01/30 11:12:51;;;;;;;11.87;5.80;;;11.20;99.90;;;;;;5095030;28;20171;-43
2024/01/30 11:15:17;;;;;;;11.40;6.00;;;11.30;99.90;;;;;;5095020;28;20159;-42
2024/01/30 11:17:51;;;;;;;15.73;5.87;;;11.30;99.90;;;;;;5094917;28;20678;-42
2024/01/30 11:20:27;;;;;;;11.03;5.50;;;11.40;99.90;;;;;;5094561;28;20255;-42
2024/01/30 11:22:54;;;;;;;11.37;5.80;;;11.40;99.90;;;;;;5095409;28;20177;-43
2024/01/30 11:25:22;;;;;;;8.03;4.60;;;11.40;99.90;;;;;;5095050;28;20170;-43
2024/01/30 11:27:50;;;;;;;16.53;5.60;;;11.40;99.90;;;;;;5093878;28;20197;-43
2024/01/30 11:30:25;;;;;;;10.17;5.03;;;11.50;99.90;;;;;;5094787;28;20186;-42
2024/01/30 11:33:08;;;;;;;9.43;4.77;;;11.40;99.90;;;;;;5094988;28;20236;-43
2024/01/30 11:35:41;;;;;;;11.93;5.47;;;11.50;99.90;;;;;;5094813;28;20183;-42
2024/01/30 11:38:09;;;;;;;11.93;6.03;;;11.50;99.90;;;;;;5094397;28;20207;-43
2024/01/30 11:40:37;;;;;;;11.97;5.90;;;11.50;99.90;;;;;;5094526;28;20597;-43
2024/01/30 11:43:05;;;;;;;10.60;6.00;;;11.40;99.90;;;;;;5094788;28;20181;-43
2024/01/30 11:45:36;;;;;;;11.93;6.57;;;11.50;99.90;;;;;;5094421;28;20179;-42
2024/01/30 11:48:05;;;;;;;10.23;5.97;;;11.50;99.90;;;;;;5094735;28;20167;-42
2024/01/30 11:50:32;;;;;;;13.03;6.37;;;11.50;99.90;;;;;;5094292;28;20171;-43
2024/01/30 11:53:00;;;;;;;13.00;5.73;;;11.50;99.90;;;;;;5094398;28;20225;-43
2024/01/30 11:55:26;;;;;;;13.47;4.07;;;11.60;99.90;;;;;;5094218;28;20179;-41
2024/01/30 11:57:55;;;;;;;8.23;5.57;;;11.60;99.90;;;;;;5094148;28;20203;-43
2024/01/30 12:00:21;;;;;;;14.07;6.77;;;11.60;99.90;;;;;;5094159;28;20178;-44
2024/01/30 12:03:30;;;;;;;13.47;6.00;;;11.50;99.90;;;;;;5094433;28;20258;-44
2024/01/30 12:05:58;;;;;;;10.17;6.20;;;11.50;99.90;;;;;;5093954;28;20191;-44
2024/01/30 12:08:24;;;;;;;19.80;6.73;;;11.50;99.90;;;;;;5094039;28;20545;-44
2024/01/30 12:10:58;;;;;;;13.63;6.77;;;11.60;99.90;;;;;;5094107;28;20175;-43
2024/01/30 12:13:23;;;;;;;14.00;5.90;;;11.60;99.90;;;;;;5094133;28;20174;-48
2024/01/30 12:15:49;;;;;;;11.80;6.37;;;11.60;99.90;;;;;;5094088;28;20199;-48
2024/01/30 12:18:19;;;;;;;10.03;6.07;;;11.60;99.90;;;;;;5092762;28;20251;-46
2024/01/30 12:21:00;;;;;;;7.53;4.90;;;11.60;99.90;;;;;;5094144;28;20174;-46
2024/01/30 12:23:29;;;;;;;12.90;7.03;;;11.70;99.90;;;;;;5094018;28;20178;-46
2024/01/30 12:25:55;;;;;;;9.63;6.27;;;11.70;99.90;;;;;;5093558;28;20194;-48
2024/01/30 12:28:22;;;;;;;11.67;6.13;;;11.70;99.90;;;;;;5091983;28;20240;-47
2024/01/30 12:30:47;;;;;;;8.57;5.73;;;11.70;99.90;;;;;;5092272;28;20198;-47
2024/01/30 12:33:18;;;;;;;11.80;6.80;;;11.70;99.90;;;;;;5093645;28;20178;-47
2024/01/30 12:35:48;;;;;;;14.03;7.00;;;11.80;99.90;;;;;;5093806;28;20209;-48
2024/01/30 12:38:14;;;;;;;12.07;6.53;;;11.80;99.90;;;;;;5092159;28;20710;-48
2024/01/30 12:40:40;;;;;;;12.47;6.90;;;11.80;99.90;;;;;;5093655;28;20243;-46
2024/01/30 12:43:06;;;;;;;15.50;6.77;;;11.80;99.90;;;;;;5093522;28;20694;-47
2024/01/30 12:45:31;;;;;;;13.80;7.27;;;11.80;99.90;;;;;;5093714;28;20182;-48
2024/01/30 12:48:00;;;;;;;10.43;6.20;;;11.80;99.90;;;;;;5093670;28;20562;-47